Time;durP1;ratioP1;P1;durP2;ratioP2;P2;SDS_P1;SDS_P2;PMS_P1;PMS_P2;Temp;Humidity;BMP_temperature;BMP_pressure;BME280_temperature;BME280_humidity;BME280_pressure;Samples;Min_cycle;Max_cycle;Signal;HPM_P1;HPM_P2
2021/08/23 00:00:03;;;;;;;6.23;3.20;;;;;;;14.45;100.00;96309.19;1044649;28;20024;-73
2021/08/23 00:00:34;;;;;;;5.00;3.00;;;;;;;14.47;100.00;96306.22;1044402;28;20043;-73
2021/08/23 00:01:05;;;;;;;4.83;3.03;;;;;;;14.44;100.00;96310.28;1044921;28;20032;-73
2021/08/23 00:01:37;;;;;;;5.15;3.00;;;;;;;14.41;100.00;96308.16;1040429;28;20014;-73
2021/08/23 00:02:07;;;;;;;5.80;3.25;;;;;;;14.39;100.00;96314.94;1036290;28;20022;-73
2021/08/23 00:02:37;;;;;;;8.37;3.40;;;;;;;14.40;100.00;96313.84;1040337;28;20030;-73
2021/08/23 00:03:08;;;;;;;10.30;3.53;;;;;;;14.43;100.00;96315.94;1040969;28;20029;-74
2021/08/23 00:03:38;;;;;;;5.60;3.13;;;;;;;14.41;100.00;96312.75;1048855;28;20021;-73
2021/08/23 00:04:09;;;;;;;7.43;3.60;;;;;;;14.43;100.00;96313.25;1052900;28;20026;-73
2021/08/23 00:04:39;;;;;;;5.17;3.10;;;;;;;14.40;100.00;96311.94;1040396;28;20466;-73
2021/08/23 00:05:10;;;;;;;10.83;3.70;;;;;;;14.41;100.00;96310.06;1040484;28;20017;-73
2021/08/23 00:05:41;;;;;;;9.45;3.78;;;;;;;14.39;100.00;96307.66;1036347;28;20029;-73
2021/08/23 00:06:11;;;;;;;6.90;3.47;;;;;;;14.37;100.00;96307.13;1036595;28;20426;-73
2021/08/23 00:06:41;;;;;;;5.07;3.00;;;;;;;14.39;100.00;96313.03;1040378;28;20462;-74
2021/08/23 00:07:12;;;;;;;6.03;3.73;;;;;;;14.40;100.00;96311.16;1040553;28;20018;-73
2021/08/23 00:07:42;;;;;;;6.13;3.10;;;;;;;14.33;100.00;96308.81;1036314;28;20018;-74
2021/08/23 00:08:13;;;;;;;8.13;3.63;;;;;;;14.31;100.00;96305.59;1040424;28;20013;-74
2021/08/23 00:08:43;;;;;;;7.57;3.70;;;;;;;14.28;100.00;96306.19;1040410;28;20010;-73
2021/08/23 00:09:13;;;;;;;6.13;3.17;;;;;;;14.30;100.00;96304.78;1039350;28;20020;-74
2021/08/23 00:09:46;;;;;;;5.80;3.40;;;;;;;14.31;100.00;96310.97;1040685;28;20378;-74
2021/08/23 00:10:16;;;;;;;10.70;3.70;;;;;;;14.33;100.00;96306.13;1040431;28;20018;-73
2021/08/23 00:10:46;;;;;;;5.10;3.23;;;;;;;14.34;100.00;96305.03;1036257;28;20026;-73
2021/08/23 00:11:17;;;;;;;6.93;3.63;;;;;;;14.34;100.00;96310.41;1036361;28;20018;-73
2021/08/23 00:11:47;;;;;;;6.33;3.40;;;;;;;14.35;100.00;96308.53;1032370;28;20026;-73
2021/08/23 00:12:18;;;;;;;6.50;3.57;;;;;;;14.36;100.00;96310.13;1032265;28;20379;-73
2021/08/23 00:12:48;;;;;;;9.13;3.80;;;;;;;14.36;100.00;96307.44;1032324;28;20018;-73
2021/08/23 00:13:19;;;;;;;5.03;3.30;;;;;;;14.35;100.00;96312.00;1032313;28;20018;-73
2021/08/23 00:13:49;;;;;;;10.10;3.60;;;;;;;14.31;100.00;96300.22;1032272;28;20026;-74
2021/08/23 00:14:20;;;;;;;6.00;3.30;;;;;;;14.32;100.00;96299.91;1036379;28;20022;-73
2021/08/23 00:14:51;;;;;;;5.50;3.60;;;;;;;14.33;100.00;96300.75;1036299;28;20034;-73
2021/08/23 00:15:21;;;;;;;6.80;3.20;;;;;;;14.33;100.00;96306.13;1036380;28;20022;-73
2021/08/23 00:15:55;;;;;;;6.23;3.20;;;;;;;14.32;100.00;96305.28;1040419;28;20446;-73
2021/08/23 00:16:25;;;;;;;7.82;3.55;;;;;;;14.32;100.00;96304.50;1036898;28;20021;-74
2021/08/23 00:16:56;;;;;;;6.97;3.23;;;;;;;14.32;100.00;96293.75;1040398;28;20479;-74
2021/08/23 00:17:26;;;;;;;4.87;3.27;;;;;;;14.33;100.00;96303.44;1040177;28;20022;-73
2021/08/23 00:17:56;;;;;;;6.17;3.50;;;;;;;14.32;100.00;96299.91;1040415;28;20030;-73
2021/08/23 00:18:27;;;;;;;6.43;3.47;;;;;;;14.31;100.00;96309.06;1040497;28;20041;-74
2021/08/23 00:18:57;;;;;;;6.07;3.60;;;;;;;14.30;100.00;96295.94;1040421;28;20442;-73
2021/08/23 00:19:28;;;;;;;6.80;3.77;;;;;;;14.33;100.00;96308.81;1041776;28;20017;-74
2021/08/23 00:19:58;;;;;;;6.43;3.70;;;;;;;14.34;100.00;96305.03;1044813;28;20363;-73
2021/08/23 00:20:42;;;;;;;8.30;3.67;;;;;;;14.35;100.00;96311.22;1044834;28;20470;-74
2021/08/23 00:21:13;;;;;;;6.28;3.25;;;;;;;14.34;100.00;96304.25;1044884;28;20029;-73
2021/08/23 00:21:44;;;;;;;6.57;3.47;;;;;;;14.31;100.00;96303.69;1044781;28;20025;-73
2021/08/23 00:22:29;;;;;;;7.80;3.67;;;;;;;14.32;100.00;96299.91;1044467;28;20381;-73
2021/08/23 00:22:59;;;;;;;8.25;3.85;;;;;;;14.28;100.00;96298.13;1040471;28;20100;-73
2021/08/23 00:23:36;;;;;;;6.47;3.60;;;;;;;14.30;100.00;96301.31;1040334;28;20021;-73
2021/08/23 00:24:07;;;;;;;6.18;3.42;;;;;;;14.31;100.00;96297.53;1043207;28;20530;-73
2021/08/23 00:24:37;;;;;;;5.53;3.30;;;;;;;14.29;100.00;96305.09;1044667;28;20474;-73
2021/08/23 00:25:08;;;;;;;9.83;3.57;;;;;;;14.29;100.00;96303.19;1044839;28;20029;-74
2021/08/23 00:25:39;;;;;;;8.80;3.73;;;;;;;14.32;100.00;96305.28;1048509;28;20131;-73
2021/08/23 00:26:09;;;;;;;5.68;3.30;;;;;;;14.27;100.00;96294.59;1044484;28;20068;-73
2021/08/23 00:26:40;;;;;;;5.77;3.37;;;;;;;14.27;100.00;96299.97;1044507;28;20060;-75
2021/08/23 00:27:11;;;;;;;6.17;3.47;;;;;;;14.30;100.00;96295.94;1044613;28;20516;-73
2021/08/23 00:27:41;;;;;;;6.10;2.90;;;;;;;14.34;100.00;96304.25;1044514;28;20082;-74
2021/08/23 00:28:12;;;;;;;7.97;3.70;;;;;;;14.36;100.00;96305.53;1040300;28;20068;-74
2021/08/23 00:28:42;;;;;;;5.97;3.47;;;;;;;14.37;100.00;96304.44;1032022;28;20018;-74
2021/08/23 00:29:13;;;;;;;7.33;3.30;;;;;;;14.38;100.00;96307.94;1036170;28;20273;-73
2021/08/23 00:29:44;;;;;;;8.13;3.40;;;;;;;14.40;100.00;96301.19;1034431;28;20019;-73
2021/08/23 00:30:15;;;;;;;12.90;3.65;;;;;;;14.40;100.00;96308.47;1036427;28;20068;-73
2021/08/23 00:30:46;;;;;;;9.53;3.50;;;;;;;14.34;100.00;96307.72;1031896;28;20391;-74
2021/08/23 00:31:16;;;;;;;8.37;3.47;;;;;;;14.36;100.00;96307.44;1024702;28;20031;-73
2021/08/23 00:31:46;;;;;;;9.10;3.57;;;;;;;14.38;100.00;96300.66;1032199;28;20026;-73
2021/08/23 00:32:17;;;;;;;6.73;3.10;;;;;;;14.38;100.00;96305.25;1032263;28;20404;-74
2021/08/23 00:32:47;;;;;;;6.27;3.40;;;;;;;14.40;100.00;96303.88;1040463;28;20025;-74
2021/08/23 00:33:18;;;;;;;5.37;3.20;;;;;;;14.41;100.00;96302.00;1044407;28;20021;-72
2021/08/23 00:33:48;;;;;;;6.23;3.57;;;;;;;14.36;100.00;96300.16;1036188;28;20061;-72
2021/08/23 00:34:19;;;;;;;5.60;3.67;;;;;;;14.37;100.00;96304.44;1032239;28;20021;-71
2021/08/23 00:34:49;;;;;;;7.87;3.17;;;;;;;14.38;100.00;96295.28;1036232;28;20037;-73
2021/08/23 00:35:19;;;;;;;5.33;3.07;;;;;;;14.38;100.00;96297.16;1036317;28;20025;-73
2021/08/23 00:35:50;;;;;;;8.03;3.50;;;;;;;14.40;100.00;96300.41;1044294;28;20028;-72
2021/08/23 00:36:20;;;;;;;8.07;3.70;;;;;;;14.41;100.00;96302.00;1044758;28;20385;-72
2021/08/23 00:36:51;;;;;;;6.13;3.50;;;;;;;14.40;100.00;96295.81;1044496;28;20586;-72
2021/08/23 00:37:21;;;;;;;6.77;3.80;;;;;;;14.41;100.00;96300.09;1044442;28;20032;-72
2021/08/23 00:37:53;;;;;;;5.83;2.90;;;;;;;14.42;100.00;96293.63;1043523;28;20029;-72
2021/08/23 00:38:23;;;;;;;7.32;3.45;;;;;;;14.43;100.00;96295.22;1040249;28;20068;-72
2021/08/23 00:38:53;;;;;;;7.00;3.63;;;;;;;14.42;100.00;96292.84;1040313;28;20028;-72
2021/08/23 00:39:24;;;;;;;7.47;3.30;;;;;;;14.43;100.00;96294.44;1040618;28;20022;-72
2021/08/23 00:39:54;;;;;;;5.30;3.27;;;;;;;14.42;100.00;96293.63;1036342;28;20030;-71
2021/08/23 00:40:25;;;;;;;6.87;3.30;;;;;;;14.41;100.00;96291.25;1040352;28;20356;-72
2021/08/23 00:40:55;;;;;;;5.93;3.30;;;;;;;14.41;100.00;96293.94;1036224;28;20467;-72
2021/08/23 00:41:26;;;;;;;10.40;3.90;;;;;;;14.44;100.00;96296.06;1036433;28;20033;-72
2021/08/23 00:41:56;;;;;;;7.17;3.20;;;;;;;14.42;100.00;96299.00;1040364;28;20040;-73
2021/08/23 00:42:27;;;;;;;6.53;3.60;;;;;;;14.39;100.00;96296.91;1036203;28;20022;-72
2021/08/23 00:42:58;;;;;;;7.47;3.70;;;;;;;14.41;100.00;96296.63;1040348;28;20427;-72
2021/08/23 00:43:30;;;;;;;8.55;3.90;;;;;;;14.44;100.00;96291.47;1040562;28;20029;-72
2021/08/23 00:44:00;;;;;;;7.03;3.78;;;;;;;14.46;100.00;96291.97;1040730;28;20228;-72
2021/08/23 00:44:31;;;;;;;8.60;3.50;;;;;;;14.46;100.00;96302.72;1040148;28;20120;-72
2021/08/23 00:45:02;;;;;;;9.13;3.57;;;;;;;14.47;100.00;96298.97;1036270;28;20022;-72
2021/08/23 00:45:32;;;;;;;5.83;3.27;;;;;;;14.44;100.00;96296.06;1036206;28;20021;-73
2021/08/23 00:46:03;;;;;;;6.10;3.47;;;;;;;14.46;100.00;96297.34;1036280;28;20030;-72
2021/08/23 00:46:34;;;;;;;7.18;3.30;;;;;;;14.44;100.00;96298.75;1036612;28;20478;-72
2021/08/23 00:47:05;;;;;;;6.05;3.45;;;;;;;14.44;100.00;96296.06;1040260;28;20022;-72
2021/08/23 00:47:36;;;;;;;5.50;3.40;;;;;;;14.42;100.00;96304.38;1036135;28;20033;-72
2021/08/23 00:48:06;;;;;;;7.00;3.60;;;;;;;14.41;100.00;96297.41;1032409;28;20022;-72
2021/08/23 00:48:36;;;;;;;8.00;3.53;;;;;;;14.41;100.00;96294.72;1032059;28;20035;-73
2021/08/23 00:49:07;;;;;;;6.03;3.30;;;;;;;14.43;100.00;96297.91;1036441;28;20022;-72
2021/08/23 00:49:38;;;;;;;7.53;3.73;;;;;;;14.46;100.00;96293.88;1036105;28;20080;-72
2021/08/23 00:50:08;;;;;;;6.73;3.60;;;;;;;14.48;100.00;96300.56;1032266;28;20028;-72
2021/08/23 00:50:39;;;;;;;7.27;3.97;;;;;;;14.48;100.00;96297.09;1031904;28;20061;-72
2021/08/23 00:51:09;;;;;;;6.27;3.50;;;;;;;14.48;100.00;96300.56;1024305;28;20469;-72
2021/08/23 00:51:40;;;;;;;6.93;3.93;;;;;;;14.49;100.00;96293.34;1032210;28;20029;-72
2021/08/23 00:52:10;;;;;;;7.80;3.87;;;;;;;14.49;100.00;96296.03;1036238;28;20021;-72
2021/08/23 00:52:41;;;;;;;6.10;3.60;;;;;;;14.47;100.00;96298.97;1032089;28;20089;-72
2021/08/23 00:53:11;;;;;;;6.80;3.77;;;;;;;14.49;100.00;96296.03;1036162;28;20017;-72
2021/08/23 00:53:42;;;;;;;6.17;3.67;;;;;;;14.49;100.00;96304.88;1032078;28;20019;-72
2021/08/23 00:54:13;;;;;;;7.90;3.77;;;;;;;14.50;100.00;96290.34;1032499;28;20034;-72
2021/08/23 00:54:43;;;;;;;6.53;3.60;;;;;;;14.48;100.00;96289.81;1040113;28;20717;-72
2021/08/23 00:55:13;;;;;;;7.57;3.93;;;;;;;14.46;100.00;96293.88;1036196;28;20368;-73
2021/08/23 00:55:44;;;;;;;8.17;3.90;;;;;;;14.46;100.00;96294.66;1032007;28;20027;-72
2021/08/23 00:56:17;;;;;;;7.73;3.20;;;;;;;14.48;100.00;96291.72;1024100;28;20027;-72
2021/08/23 00:56:48;;;;;;;5.53;3.00;;;;;;;14.47;100.00;96298.97;1032003;28;20066;-73
2021/08/23 00:57:18;;;;;;;6.27;3.47;;;;;;;14.50;100.00;96289.56;1032155;28;20031;-72
2021/08/23 00:57:49;;;;;;;7.30;3.27;;;;;;;14.48;100.00;96287.13;1030544;28;20033;-72
2021/08/23 00:58:19;;;;;;;6.03;3.43;;;;;;;14.49;100.00;96293.34;1039990;28;20036;-72
2021/08/23 00:58:50;;;;;;;4.60;2.80;;;;;;;14.50;100.00;96290.34;1040252;28;20075;-72
2021/08/23 00:59:22;;;;;;;6.33;3.20;;;;;;;14.49;100.00;96296.81;1039373;28;20040;-73
2021/08/23 00:59:52;;;;;;;8.30;3.45;;;;;;;14.47;100.00;96293.59;1040272;28;20021;-73
2021/08/23 01:00:23;;;;;;;9.93;3.80;;;;;;;14.48;100.00;96291.72;1035786;28;20045;-72
2021/08/23 01:00:57;;;;;;;7.97;3.80;;;;;;;14.46;100.00;96289.28;1032316;28;20018;-72
2021/08/23 01:01:34;;;;;;;6.00;3.38;;;;;;;14.47;100.00;96282.03;1028085;28;20117;-72
2021/08/23 01:02:15;;;;;;;7.07;3.45;;;;;;;14.47;100.00;96288.22;1029553;28;20037;-72
2021/08/23 01:02:58;;;;;;;8.73;3.47;;;;;;;14.46;100.00;96286.59;1028117;28;20042;-73
2021/08/23 01:03:40;;;;;;;5.30;3.30;;;;;;;14.46;100.00;96291.19;1036113;28;20034;-72
2021/08/23 01:04:15;;;;;;;7.55;3.35;;;;;;;14.48;100.00;96289.03;1036101;28;20499;-73
2021/08/23 01:05:00;;;;;;;6.55;3.42;;;;;;;14.48;100.00;96291.72;1032043;28;20030;-71
2021/08/23 01:05:31;;;;;;;9.35;3.90;;;;;;;14.47;100.00;96288.22;1036086;28;20034;-71
2021/08/23 01:06:04;;;;;;;7.18;3.40;;;;;;;14.50;100.00;96284.97;1032087;28;20037;-71
2021/08/23 01:06:34;;;;;;;10.52;4.22;;;;;;;14.50;100.00;96284.19;1030968;28;20049;-71
2021/08/23 01:07:07;;;;;;;9.23;3.50;;;;;;;14.49;100.00;96283.38;1023954;28;20031;-71
2021/08/23 01:07:48;;;;;;;5.97;3.50;;;;;;;14.45;100.00;96281.50;1024043;29;20082;-71
2021/08/23 01:08:37;;;;;;;7.07;3.50;;;;;;;14.41;100.00;96286.66;1030026;28;20038;-71
2021/08/23 01:09:10;;;;;;;8.15;3.45;;;;;;;14.40;100.00;96278.88;1023958;28;20034;-70
2021/08/23 01:09:43;;;;;;;7.97;3.60;;;;;;;14.44;100.00;96286.09;1024077;29;20414;-71
2021/08/23 01:10:14;;;;;;;6.78;3.40;;;;;;;14.42;100.00;96282.88;1035304;28;20504;-71
2021/08/23 01:10:46;;;;;;;9.57;3.60;;;;;;;14.41;100.00;96288.56;1037006;28;20034;-71
2021/08/23 01:11:16;;;;;;;7.93;3.30;;;;;;;14.40;100.00;96286.94;1036729;28;20511;-71
2021/08/23 01:11:52;;;;;;;7.10;3.30;;;;;;;14.42;100.00;96285.56;1035994;28;20038;-71
2021/08/23 01:12:23;;;;;;;6.15;3.60;;;;;;;14.47;100.00;96287.41;1031919;28;20026;-71
2021/08/23 01:12:55;;;;;;;7.00;3.72;;;;;;;14.50;100.00;96286.88;1024924;28;20039;-71
2021/08/23 01:13:25;;;;;;;6.32;3.40;;;;;;;14.48;100.00;96281.75;1027897;28;20027;-71
2021/08/23 01:13:56;;;;;;;7.17;3.40;;;;;;;14.51;100.00;96286.56;1028076;28;20027;-71
2021/08/23 01:14:26;;;;;;;6.43;2.90;;;;;;;14.50;100.00;96284.97;1028192;28;20019;-71
2021/08/23 01:14:58;;;;;;;6.43;3.40;;;;;;;14.50;100.00;96286.88;1032265;28;20460;-71
2021/08/23 01:15:28;;;;;;;7.18;3.47;;;;;;;14.51;100.00;96286.56;1040125;28;20021;-72
2021/08/23 01:15:58;;;;;;;6.87;3.53;;;;;;;14.51;100.00;96281.19;1040430;28;20602;-71
2021/08/23 01:16:29;;;;;;;5.93;2.97;;;;;;;14.51;100.00;96283.88;1044247;28;20036;-71
2021/08/23 01:17:04;;;;;;;6.57;3.37;;;;;;;14.53;100.00;96284.38;1044318;28;20019;-71
2021/08/23 01:17:34;;;;;;;7.50;3.70;;;;;;;14.56;100.00;96278.44;1039988;28;20025;-71
2021/08/23 01:18:04;;;;;;;6.17;3.23;;;;;;;14.58;100.00;96280.81;1041144;28;20029;-71
2021/08/23 01:18:35;;;;;;;6.60;3.00;;;;;;;14.59;100.00;96278.94;1040171;28;20033;-72
2021/08/23 01:19:05;;;;;;;7.13;3.70;;;;;;;14.53;100.00;96281.69;1040172;28;20029;-71
2021/08/23 01:19:36;;;;;;;8.57;3.30;;;;;;;14.56;100.00;96283.03;1040155;28;20487;-70
2021/08/23 01:20:07;;;;;;;8.02;3.28;;;;;;;14.53;100.00;96281.69;1040122;28;20100;-73
2021/08/23 01:20:39;;;;;;;5.80;3.13;;;;;;;14.54;100.00;96283.31;1036055;28;20029;-73
2021/08/23 01:21:11;;;;;;;7.88;3.60;;;;;;;14.59;100.00;96278.94;1036056;28;20101;-71
2021/08/23 01:21:41;;;;;;;7.45;3.60;;;;;;;14.59;100.00;96279.75;1032546;28;20033;-73
2021/08/23 01:22:12;;;;;;;6.10;3.30;;;;;;;14.59;100.00;96287.00;1040134;28;20028;-72
2021/08/23 01:22:45;;;;;;;7.77;3.40;;;;;;;14.53;100.00;96283.59;1032154;28;20030;-71
2021/08/23 01:23:15;;;;;;;7.68;3.05;;;;;;;14.52;100.00;96280.09;1031845;28;20033;-71
2021/08/23 01:23:46;;;;;;;6.40;3.20;;;;;;;14.51;100.00;96286.56;1031521;28;20045;-71
2021/08/23 01:24:16;;;;;;;4.97;3.20;;;;;;;14.54;100.00;96280.63;1032427;28;20027;-72
2021/08/23 01:24:48;;;;;;;7.17;3.23;;;;;;;14.56;100.00;96283.81;1032477;28;20504;-71
2021/08/23 01:25:21;;;;;;;5.70;3.42;;;;;;;14.52;100.00;96277.41;1035998;28;20026;-71
2021/08/23 01:25:52;;;;;;;8.73;3.72;;;;;;;14.51;100.00;96278.50;1023890;29;20500;-71
2021/08/23 01:26:24;;;;;;;6.53;3.13;;;;;;;14.53;100.00;96281.69;1023848;29;20027;-72
2021/08/23 01:26:54;;;;;;;6.63;3.38;;;;;;;14.51;100.00;96283.88;1023845;29;20035;-72
2021/08/23 01:27:24;;;;;;;7.07;3.43;;;;;;;14.56;100.00;96277.63;1027836;28;20027;-71
2021/08/23 01:28:16;;;;;;;5.20;3.30;;;;;;;14.55;100.00;96284.91;1028352;28;20027;-71
2021/08/23 01:29:12;;;;;;;9.23;4.28;;;;;;;14.51;100.00;96286.56;1027902;28;20038;-71
2021/08/23 01:30:02;;;;;;;7.68;3.25;;;;;;;14.53;100.00;96288.97;1029854;28;20034;-72
2021/08/23 01:30:53;;;;;;;6.05;3.53;;;;;;;14.53;100.00;96286.28;1040395;28;20026;-73
2021/08/23 01:31:45;;;;;;;7.25;3.33;;;;;;;14.56;100.00;96283.03;1034507;28;20033;-74
2021/08/23 01:32:22;;;;;;;8.63;3.50;;;;;;;14.51;100.00;96283.88;1028248;28;20027;-74
2021/08/23 01:32:52;;;;;;;7.47;3.10;;;;;;;14.52;100.00;96279.28;1027911;28;20023;-75
2021/08/23 01:33:22;;;;;;;9.20;3.27;;;;;;;14.54;100.00;96283.31;1019830;28;20023;-75
2021/08/23 01:33:53;;;;;;;10.37;3.60;;;;;;;14.59;100.00;96281.63;1019931;29;20027;-74
2021/08/23 01:34:24;;;;;;;6.07;3.40;;;;;;;14.60;100.00;96277.88;1020147;29;20143;-75
2021/08/23 01:34:56;;;;;;;6.72;3.00;;;;;;;14.60;100.00;96278.66;1024350;28;20449;-76
2021/08/23 01:35:27;;;;;;;6.78;3.53;;;;;;;14.56;100.00;96278.44;1036081;28;20022;-76
2021/08/23 01:35:58;;;;;;;5.83;3.50;;;;;;;14.56;100.00;96283.81;1039757;28;20466;-75
2021/08/23 01:36:29;;;;;;;6.97;3.50;;;;;;;14.57;100.00;96285.41;1039932;28;20809;-76
2021/08/23 01:37:01;;;;;;;8.93;3.30;;;;;;;14.57;100.00;96287.31;1031915;28;20088;-75
2021/08/23 01:37:31;;;;;;;7.05;3.20;;;;;;;14.52;100.00;96279.28;1028205;28;20022;-75
2021/08/23 01:38:03;;;;;;;7.07;3.37;;;;;;;14.52;100.00;96276.59;1030944;28;20062;-76
2021/08/23 01:38:33;;;;;;;8.15;3.30;;;;;;;14.52;100.00;96277.41;1029025;28;20022;-76
2021/08/23 01:39:03;;;;;;;6.20;3.43;;;;;;;14.53;100.00;96284.38;1036844;28;20464;-76
2021/08/23 01:39:35;;;;;;;8.00;3.60;;;;;;;14.48;100.00;96287.13;1032354;28;20026;-77
2021/08/23 01:40:06;;;;;;;6.82;3.50;;;;;;;14.46;100.00;96277.72;1031890;28;20495;-76
2021/08/23 01:40:36;;;;;;;7.40;3.20;;;;;;;14.47;100.00;96273.94;1028236;28;20027;-76
2021/08/23 01:41:08;;;;;;;6.63;3.60;;;;;;;14.50;100.00;96278.78;1028889;28;20069;-75
2021/08/23 01:41:38;;;;;;;8.88;3.58;;;;;;;14.47;100.00;96276.63;1036215;28;20026;-75
2021/08/23 01:42:09;;;;;;;5.40;3.30;;;;;;;14.47;100.00;96274.78;1040122;28;20022;-76
2021/08/23 01:42:39;;;;;;;5.73;2.97;;;;;;;14.44;100.00;96279.91;1031539;28;20010;-75
2021/08/23 01:43:10;;;;;;;6.23;3.40;;;;;;;14.42;100.00;96276.69;1027744;28;20401;-74
2021/08/23 01:43:40;;;;;;;6.20;3.70;;;;;;;14.41;100.00;96275.91;1023899;29;20019;-75
2021/08/23 01:44:11;;;;;;;5.80;3.37;;;;;;;14.40;100.00;96274.31;1032144;28;20559;-75
2021/08/23 01:44:41;;;;;;;7.77;3.03;;;;;;;14.40;100.00;96279.69;1035912;28;20030;-75
2021/08/23 01:45:12;;;;;;;9.10;3.50;;;;;;;14.39;100.00;96278.09;1040134;28;20014;-75
2021/08/23 01:45:42;;;;;;;5.37;3.20;;;;;;;14.40;100.00;96277.00;1035733;28;20018;-74
2021/08/23 01:46:12;;;;;;;9.13;3.00;;;;;;;14.43;100.00;96272.91;1035979;28;20053;-75
2021/08/23 01:46:43;;;;;;;6.63;3.40;;;;;;;14.43;100.00;96273.72;1035813;28;20022;-76
2021/08/23 01:47:14;;;;;;;5.70;3.23;;;;;;;14.44;100.00;96280.72;1035699;28;20056;-75
2021/08/23 01:47:44;;;;;;;6.77;2.80;;;;;;;14.40;100.00;96277.00;1039791;28;20021;-75
2021/08/23 01:48:14;;;;;;;5.97;3.00;;;;;;;14.44;100.00;96277.22;1042967;28;20032;-75
2021/08/23 01:48:46;;;;;;;6.10;3.27;;;;;;;14.43;100.00;96284.47;1048122;28;20067;-75
2021/08/23 01:49:16;;;;;;;7.55;3.53;;;;;;;14.39;100.00;96272.72;1044023;28;20021;-74
2021/08/23 01:49:47;;;;;;;5.43;3.33;;;;;;;14.38;100.00;96281.84;1035687;28;20014;-74
2021/08/23 01:50:17;;;;;;;6.30;3.33;;;;;;;14.33;100.00;96281.94;1031896;28;20015;-74
2021/08/23 01:50:47;;;;;;;8.20;3.37;;;;;;;14.36;100.00;96275.16;1027816;28;20035;-74
2021/08/23 01:51:18;;;;;;;7.40;4.07;;;;;;;14.37;100.00;96282.94;1027940;28;20011;-74
2021/08/23 01:51:48;;;;;;;6.40;3.40;;;;;;;14.38;100.00;96275.66;1031643;28;20015;-75
2021/08/23 01:52:19;;;;;;;7.97;3.47;;;;;;;14.38;100.00;96281.84;1031769;28;20022;-74
2021/08/23 01:52:49;;;;;;;5.70;3.20;;;;;;;14.41;100.00;96277.78;1031769;28;20030;-74
2021/08/23 01:53:20;;;;;;;5.43;3.10;;;;;;;14.42;100.00;96274.00;1031701;28;20080;-75
2021/08/23 01:53:51;;;;;;;6.47;3.28;;;;;;;14.42;100.00;96274.81;1023995;28;20027;-75
2021/08/23 01:54:22;;;;;;;6.80;3.73;;;;;;;14.45;100.00;96281.50;1032168;28;20042;-75
2021/08/23 01:54:52;;;;;;;8.93;3.72;;;;;;;14.46;100.00;96278.53;1035787;28;20022;-75
2021/08/23 01:55:22;;;;;;;5.47;3.30;;;;;;;14.45;100.00;96279.63;1035897;28;20034;-75
2021/08/23 01:55:53;;;;;;;7.73;3.50;;;;;;;14.43;100.00;96281.78;1039848;28;20025;-75
2021/08/23 01:56:23;;;;;;;5.23;3.17;;;;;;;14.43;100.00;96279.09;1035899;28;20081;-75
2021/08/23 01:56:54;;;;;;;5.90;3.33;;;;;;;14.48;100.00;96281.75;1039960;28;20036;-76
2021/08/23 01:57:25;;;;;;;5.70;2.80;;;;;;;14.45;100.00;96271.56;1040302;28;20032;-75
2021/08/23 01:57:55;;;;;;;6.78;3.50;;;;;;;14.47;100.00;96276.63;1040112;28;20097;-75
2021/08/23 01:58:26;;;;;;;5.30;3.40;;;;;;;14.50;100.00;96279.59;1044011;28;20044;-75
2021/08/23 01:58:59;;;;;;;5.03;2.97;;;;;;;14.43;100.00;96276.41;1044075;28;20071;-75
2021/08/23 01:59:29;;;;;;;8.40;3.20;;;;;;;14.40;100.00;96274.31;1035907;28;20057;-75
2021/08/23 02:00:00;;;;;;;5.17;3.00;;;;;;;14.46;100.00;96278.53;1035438;28;20037;-75
2021/08/23 02:00:30;;;;;;;6.43;3.40;;;;;;;14.45;100.00;96279.63;1031039;28;20018;-75
2021/08/23 02:01:00;;;;;;;5.17;3.20;;;;;;;14.46;100.00;96275.03;1035864;28;20017;-75
2021/08/23 02:01:31;;;;;;;5.80;3.50;;;;;;;14.47;100.00;96269.41;1039798;28;20490;-75
2021/08/23 02:02:01;;;;;;;9.53;3.70;;;;;;;14.50;100.00;96274.22;1035842;28;20018;-75
2021/08/23 02:02:32;;;;;;;8.47;3.20;;;;;;;14.50;100.00;96278.78;1035897;28;20554;-75
2021/08/23 02:03:02;;;;;;;4.87;2.93;;;;;;;14.52;100.00;96277.41;1039842;28;20036;-75
2021/08/23 02:03:33;;;;;;;5.13;2.97;;;;;;;14.54;100.00;96288.69;1039858;28;20025;-75
2021/08/23 02:04:03;;;;;;;6.53;3.37;;;;;;;14.57;100.00;96280.03;1040204;28;20032;-75
2021/08/23 02:04:34;;;;;;;8.17;3.33;;;;;;;14.57;100.00;96274.66;1040211;28;20028;-75
2021/08/23 02:05:04;;;;;;;5.07;3.10;;;;;;;14.58;100.00;96272.75;1040217;28;20036;-75
2021/08/23 02:05:34;;;;;;;6.37;3.20;;;;;;;14.57;100.00;96273.84;1040108;28;20049;-75
2021/08/23 02:06:05;;;;;;;8.47;3.67;;;;;;;14.59;100.00;96276.25;1040208;28;20029;-75
2021/08/23 02:06:35;;;;;;;6.10;3.13;;;;;;;14.60;100.00;96275.19;1040291;28;20382;-76
2021/08/23 02:07:06;;;;;;;5.37;3.10;;;;;;;14.61;100.00;96280.25;1035782;28;20483;-75
2021/08/23 02:07:36;;;;;;;6.73;3.30;;;;;;;14.61;100.00;96279.47;1035802;28;20399;-75
2021/08/23 02:08:07;;;;;;;7.27;3.13;;;;;;;14.62;100.00;96284.56;1037831;28;20402;-75
2021/08/23 02:08:37;;;;;;;8.23;3.40;;;;;;;14.63;100.00;96283.47;1036030;28;20034;-75
2021/08/23 02:09:08;;;;;;;8.90;3.07;;;;;;;14.63;100.00;96278.06;1043924;28;20032;-75
2021/08/23 02:09:38;;;;;;;7.07;3.60;;;;;;;14.62;100.00;96276.47;1039868;28;20063;-75
2021/08/23 02:10:09;;;;;;;8.67;3.30;;;;;;;14.64;100.00;96284.25;1031815;28;20368;-75
2021/08/23 02:10:40;;;;;;;6.53;3.10;;;;;;;14.57;100.00;96285.41;1031603;28;20026;-75
2021/08/23 02:11:10;;;;;;;7.03;3.30;;;;;;;14.62;100.00;96287.25;1027676;28;20023;-75
2021/08/23 02:11:41;;;;;;;6.90;3.40;;;;;;;14.63;100.00;96272.69;1027957;28;20034;-75
2021/08/23 02:12:12;;;;;;;6.17;3.77;;;;;;;14.67;100.00;96284.47;1027735;28;20019;-75
2021/08/23 02:12:43;;;;;;;7.90;3.05;;;;;;;14.68;100.00;96280.69;1027933;28;20519;-75
2021/08/23 02:13:13;;;;;;;5.37;3.37;;;;;;;14.65;100.00;96280.50;1027862;28;20023;-75
2021/08/23 02:13:44;;;;;;;5.30;2.70;;;;;;;14.65;100.00;96291.25;1028038;28;20019;-75
2021/08/23 02:14:14;;;;;;;6.03;3.07;;;;;;;14.61;100.00;96284.84;1035870;28;20100;-75
2021/08/23 02:14:44;;;;;;;6.90;3.27;;;;;;;14.58;100.00;96283.53;1040024;28;20017;-75
2021/08/23 02:15:15;;;;;;;5.03;3.17;;;;;;;14.57;100.00;96281.94;1039991;28;20036;-75
2021/08/23 02:15:45;;;;;;;5.77;3.00;;;;;;;14.57;100.00;96282.72;1039792;28;20024;-75
2021/08/23 02:16:16;;;;;;;5.47;2.97;;;;;;;14.59;100.00;96282.44;1039881;28;20017;-76
2021/08/23 02:16:46;;;;;;;9.37;3.03;;;;;;;14.59;100.00;96287.84;1031798;28;20407;-77
2021/08/23 02:17:17;;;;;;;8.27;3.03;;;;;;;14.64;100.00;96287.78;1031815;28;20101;-76
2021/08/23 02:17:47;;;;;;;6.57;3.23;;;;;;;14.66;100.00;96284.78;1027561;28;20047;-76
2021/08/23 02:18:17;;;;;;;6.10;3.27;;;;;;;14.67;100.00;96281.78;1023996;28;20051;-76
2021/08/23 02:18:48;;;;;;;6.57;3.40;;;;;;;14.69;100.00;96278.81;1035879;28;20029;-76
2021/08/23 02:19:18;;;;;;;9.37;3.33;;;;;;;14.69;100.00;96285.03;1031966;28;20110;-76
2021/08/23 02:19:49;;;;;;;6.63;3.20;;;;;;;14.68;100.00;96286.09;1039941;28;20028;-76
2021/08/23 02:20:19;;;;;;;6.27;3.40;;;;;;;14.65;100.00;96280.50;1039864;28;20025;-76
2021/08/23 02:20:50;;;;;;;4.63;2.90;;;;;;;14.65;100.00;96277.81;1040082;28;20029;-76
2021/08/23 02:21:21;;;;;;;5.30;2.77;;;;;;;14.66;100.00;96277.50;1043972;28;20032;-76
2021/08/23 02:21:53;;;;;;;6.03;3.05;;;;;;;14.70;100.00;96283.13;1044067;28;20120;-76
2021/08/23 02:22:23;;;;;;;5.63;3.30;;;;;;;14.71;100.00;96280.13;1039789;28;20037;-75
2021/08/23 02:22:54;;;;;;;10.63;3.43;;;;;;;14.73;100.00;96279.84;1039883;28;20100;-76
2021/08/23 02:23:24;;;;;;;5.70;3.60;;;;;;;14.71;100.00;96277.44;1039773;28;20044;-75
2021/08/23 02:23:55;;;;;;;6.80;3.37;;;;;;;14.68;100.00;96271.84;1031804;28;20117;-74
2021/08/23 02:24:28;;;;;;;5.10;2.83;;;;;;;14.67;100.00;96281.00;1035735;28;20528;-75
2021/08/23 02:24:58;;;;;;;5.68;3.67;;;;;;;14.63;100.00;96278.06;1035849;28;20479;-76
2021/08/23 02:25:29;;;;;;;5.93;3.00;;;;;;;14.64;100.00;96281.56;1036330;28;20034;-75
2021/08/23 02:25:59;;;;;;;5.27;2.90;;;;;;;14.67;100.00;96279.09;1039964;28;20018;-75
2021/08/23 02:26:30;;;;;;;8.90;3.47;;;;;;;14.67;100.00;96272.94;1039833;28;20030;-75